Terminal Aerodrome Forecast
Issued by NWS Jackson, KY

Home | Current Version | Previous Version | Text Only | Print | Product List | Glossary On
Versions: 1 2 3 4 5 6 7 8 9 10 11 12 13 14
793
FTUS43 KJKL 142330
TAFJKL
TAF
KJKL 142330Z 1500/1524 VRB03KT P6SM OVC035
     FM150700 VRB03KT P6SM OVC025
     FM150900 VRB03KT P6SM OVC015
     FM151300 VRB03KT P6SM BKN025
     FM151600 26007KT P6SM SCT030=

USA.gov is the U.S. government's official web portal to all federal, state and local government web resources and services.